St Lucie County International Airport
KFPR : now visible

Airfield :











YOU CAN JOIN US ON...

 
LOGIN :

Register | Disclaimer

   EN    FR    IT 

 









Legend :    VFR   Marginal VFR   IFR   Intensive IFR   Very Intensive IFR
Visi :
Ceiling :
>= 8 km
>= 3000ft
5 to 8 km
1000 to 3000 ft
1500m to 5 km
500 to 1000 ft
800 to 1500m
200 to 500 ft
< 800m
< 200 ft
Symbols :   Thunderstorms  Fog  Heavy snow  Heavy precipitations  Wind > 20 kt






- Airport Elevation : 24 ft
- IATA code : FPR


KFPR - St Lucie County International

CURRENT METAR :
  • 082053Z 10011KT 10SM OVC110 25/14 A3012 RMK AO2 SLP200 T02500144 56007

EXPIRED METARs :
  • 081953Z 09009KT 10SM SCT080 OVC100 25/16 A3012 RMK AO2 SLP200 T02500156
  • 081853Z 09008KT 10SM BKN100 25/17 A3012 RMK AO2 SLP200 T02500167

TAF KFPR
Valid from the 08 at 18:00 until the 09 at 18:00 UTC


081724Z 0818/0918 10010KT P6SM VCSH SCT040 BKN100
FM082000 10009KT P6SM FEW040 SCT100
FM090000 10004KT P6SM FEW040 SCT250
FM091500 16008KT P6SM FEW030 SCT250



MET'MAP, your aeronautical weather chart ! - Copyright ORBIFLY December 2007 - Disclaimer

ORBIFLY MET'MAP TEAM :

Programming & Development : Alexandra Zaïnal
Concept & original design : Baudouin d'Aumeries
Assistance for programming : Marc-Olivier Méhu
Technical & hardware support : Manuel Goepfert

Contact : metmap@orbifly.com




SOURCES & CREDITS :

   NOAA       Earth
Advisory